Flight Track Log - Related Links

Times and Time Zones

All times are in EDT time to prevent confusion due to time zone crossing. See the SWA554 flight status page for this flight to view local times or setup timezone preferences in your user account.

Time Position Orientation Groundspeed Altitude Reporting Facility
EDT Latitude Longitude Course Direction KTS MPH feet Rate Location/Type
Fri 10:54:16 AM 33.4333 -111.9833 90° East 176 203 2,100  Level Phoenix TRACON
Fri 10:54:52 AM 33.4333 -111.9500 90° East 175 201 3,100 2,351 Climbing Phoenix TRACON
Fri 10:55:53 AM 33.4333 -111.8667 90° East 245 282 5,900 2,483 Climbing Phoenix TRACON
Fri 10:56:19 AM 33.4442 -111.8528 47° Northeast 255 293 6,700 3,068 Climbing Albuquerque Center
Fri 10:57:21 AM 33.4958 -111.7594 56° Northeast 283 326 10,400 2,758 Climbing Albuquerque Center
Fri 10:58:23 AM 33.5397 -111.6681 60° Northeast 326 375 12,400 2,613 Climbing Albuquerque Center
Fri 10:59:25 AM 33.5789 -111.5628 66° East 347 399 15,800 3,097 Climbing Albuquerque Center
Fri 11:00:27 AM 33.6206 -111.4525 66° East 364 419 18,800 3,000 Climbing Albuquerque Center
Fri 11:01:29 AM 33.6714 -111.3122 66° East 384 442 22,000 2,661 Climbing Albuquerque Center
Fri 11:02:31 AM 33.7175 -111.1883 66° East 405 466 24,300 2,081 Climbing Albuquerque Center
Fri 11:03:33 AM 33.7636 -111.0578 67° East 427 491 26,300 1,839 Climbing Albuquerque Center
Fri 11:04:35 AM 33.8117 -110.9211 67° East 441 507 28,100 1,680 Climbing Albuquerque Center
Fri 11:05:38 AM 33.8608 -110.7806 67° East 453 521 29,800 1,536 Climbing Albuquerque Center
Fri 11:06:40 AM 33.9114 -110.6353 67° East 466 536 31,300 1,597 Climbing Albuquerque Center
Fri 11:07:42 AM 33.9750 -110.4547 67° East 483 556 33,100 1,403 Climbing Albuquerque Center
Fri 11:08:44 AM 34.0267 -110.3117 66° East 494 568 34,200 1,210 Climbing Albuquerque Center
Fri 11:09:46 AM 34.0800 -110.1567 67° East 501 577 35,600 1,355 Climbing Albuquerque Center
Fri 11:10:48 AM 34.1419 -109.9747 68° East 507 583 37,000 1,258 Climbing Albuquerque Center
Fri 11:11:50 AM 34.1944 -109.8267 67° East 504 580 38,200 968 Climbing Albuquerque Center
Fri 11:12:52 AM 34.2519 -109.6533 68° East 500 575 39,000 387 Climbing Albuquerque Center
Fri 11:13:54 AM 34.3033 -109.5053 67° East 499 574 39,000  Level Albuquerque Center
Fri 11:14:56 AM 34.3617 -109.3319 68° East 499 574 39,000  Level Albuquerque Center
Fri 11:15:58 AM 34.4111 -109.1856 68° East 496 571 39,000  Level Albuquerque Center
Fri 11:17:00 AM 34.4628 -109.0097 70° East 495 570 39,000  Level Albuquerque Center
Fri 11:18:02 AM 34.5042 -108.8589 72° East 495 570 39,000  Level Albuquerque Center
Fri 11:19:04 AM 34.5522 -108.6836 72° East 493 567 39,000  Level Albuquerque Center
Fri 11:20:06 AM 34.5936 -108.5308 72° East 495 570 39,000  Level Albuquerque Center
Fri 11:21:08 AM 34.6358 -108.3789 71° East 495 570 39,000  Level Albuquerque Center
Fri 11:22:10 AM 34.6869 -108.1892 72° East 494 568 39,000  Level Albuquerque Center
Fri 11:23:12 AM 34.7286 -108.0325 72° East 491 565 39,000  Level Albuquerque Center
Fri 11:24:14 AM 34.7714 -107.8728 72° East 494 568 39,000  Level Albuquerque Center
Fri 11:25:16 AM 34.8133 -107.7136 72° East 494 568 39,000  Level Albuquerque Center
Fri 11:26:18 AM 34.8553 -107.5547 72° East 495 570 39,000  Level Albuquerque Center
Fri 11:27:20 AM 34.8967 -107.3925 73° East 499 574 39,000  Level Albuquerque Center
Fri 11:28:23 AM 34.9461 -107.2008 72° East 497 572 39,000  Level Albuquerque Center
Fri 11:29:25 AM 34.9908 -107.0306 72° East 504 580 39,000  Level Albuquerque Center
Fri 11:30:27 AM 35.0283 -106.8775 73° East 496 571 39,000  Level Albuquerque Center
Fri 11:31:29 AM 35.0836 -106.7094 68° East 483 556 39,000  Level Albuquerque Center
Fri 11:32:31 AM 35.1425 -106.5594 64° Northeast 504 580 39,000  Level Albuquerque Center
Fri 11:33:33 AM 35.1997 -106.3981 67° East 503 579 39,000  Level Albuquerque Center
Fri 11:34:35 AM 35.2556 -106.2461 66° East 495 570 39,000  Level Albuquerque Center
Fri 11:35:37 AM 35.3175 -106.0722 66° East 489 563 39,000  Level Albuquerque Center
Fri 11:36:39 AM 35.3753 -105.9167 65° Northeast 496 571 39,000  Level Albuquerque Center
Fri 11:37:41 AM 35.4358 -105.7608 64° Northeast 500 575 39,000  Level Albuquerque Center
Fri 11:38:43 AM 35.4914 -105.6058 66° East 495 570 39,000  Level Albuquerque Center
Fri 11:39:45 AM 35.5444 -105.4539 67° East 481 554 39,000  Level Albuquerque Center
Fri 11:40:47 AM 35.5969 -105.3006 67° East 481 554 39,000  Level Albuquerque Center
Fri 11:41:49 AM 35.6533 -105.1447 66° East 490 564 39,000  Level Albuquerque Center
Fri 11:42:51 AM 35.7292 -105.0036 56° Northeast 485 558 39,000  Level Albuquerque Center
Fri 11:43:54 AM 35.8206 -104.8456 54° Northeast 482 555 39,000  Level Albuquerque Center
Fri 11:44:55 AM 35.9017 -104.7075 54° Northeast 486 559 39,000  Level Albuquerque Center
Fri 11:45:57 AM 35.9806 -104.5675 55° Northeast 490 564 39,000  Level Albuquerque Center
Fri 11:46:59 AM 36.0575 -104.4319 55° Northeast 482 555 39,000  Level Albuquerque Center
Fri 11:48:01 AM 36.1367 -104.2922 55° Northeast 485 558 39,000  Level Albuquerque Center
Fri 11:49:03 AM 36.2167 -104.1528 55° Northeast 489 563 39,000  Level Albuquerque Center
Fri 11:50:05 AM 36.2953 -104.0128 55° Northeast 489 563 39,000  Level Albuquerque Center
Fri 11:51:08 AM 36.3742 -103.8722 55° Northeast 491 565 39,000  Level Albuquerque Center
Fri 11:52:10 AM 36.4661 -103.7089 55° Northeast 490 564 39,000  Level Albuquerque Center
Fri 11:53:12 AM 36.5433 -103.5700 55° Northeast 487 560 39,000  Level Albuquerque Center
Fri 11:54:14 AM 36.6214 -103.4278 56° Northeast 491 565 39,000  Level Albuquerque Center
Fri 11:55:16 AM 36.7031 -103.2781 56° Northeast 489 563 39,000  Level Albuquerque Center
Fri 11:56:18 AM 36.7761 -103.1453 55° Northeast 487 560 39,000  Level Albuquerque Center
Fri 11:57:20 AM 36.8606 -102.9894 56° Northeast 487 560 39,000  Level Albuquerque Center
Fri 11:58:22 AM 36.9322 -102.8569 56° Northeast 483 556 39,000  Level Albuquerque Center
Fri 11:59:24 AM 37.0183 -102.6997 56° Northeast 488 562 39,000  Level Albuquerque Center
Fri 12:00:26 PM 37.0906 -102.5661 56° Northeast 488 562 39,000  Level Albuquerque Center
Fri 12:01:28 PM 37.1631 -102.4300 56° Northeast 489 563 39,000  Level Albuquerque Center
Fri 12:02:30 PM 37.2464 -102.2711 57° Northeast 490 564 39,000  Level Albuquerque Center
Fri 12:03:32 PM 37.3200 -102.1342 56° Northeast 490 564 39,000  Level Albuquerque Center
Fri 12:04:34 PM 37.4014 -101.9733 57° Northeast 490 564 39,000  Level Albuquerque Center
Fri 12:05:59 PM 37.5097 -101.7678 56° Northeast 489 563 39,000  Level Kansas City Center
Fri 12:07:00 PM 37.5817 -101.6311 56° Northeast 488 562 39,000  Level Kansas City Center
Fri 12:08:04 PM 37.6531 -101.4942 57° Northeast 487 560 39,000  Level Kansas City Center
Fri 12:09:04 PM 37.7372 -101.3317 57° Northeast 491 565 39,000  Level Kansas City Center
Fri 12:10:08 PM 37.8092 -101.1931 57° Northeast 490 564 39,000  Level Kansas City Center
Fri 12:11:08 PM 37.8939 -101.0286 57° Northeast 492 566 39,000  Level Kansas City Center
Fri 12:12:12 PM 37.9664 -100.8869 57° Northeast 494 568 39,000  Level Kansas City Center
Fri 12:13:12 PM 38.0514 -100.7206 57° Northeast 499 574 39,000  Level Kansas City Center
Fri 12:14:16 PM 38.1203 -100.5733 59° Northeast 502 578 39,000  Level Kansas City Center
Fri 12:15:16 PM 38.1864 -100.4250 60° Northeast 503 579 39,000  Level Kansas City Center
Fri 12:16:20 PM 38.2658 -100.2547 59° Northeast 501 577 39,000  Level Kansas City Center
Fri 12:17:20 PM 38.3331 -100.1078 60° Northeast 500 575 39,000  Level Kansas City Center
Fri 12:18:24 PM 38.4108 -99.9383 60° Northeast 498 573 39,000  Level Kansas City Center
Fri 12:19:25 PM 38.4764 -99.7931 60° Northeast 495 570 39,000  Level Kansas City Center
Fri 12:20:28 PM 38.5522 -99.6256 60° Northeast 490 564 39,000  Level Kansas City Center
Fri 12:21:29 PM 38.6122 -99.4944 60° Northeast 486 559 39,000  Level Kansas City Center
Fri 12:22:30 PM 38.6789 -99.3453 60° Northeast 483 556 39,000  Level Kansas City Center
Fri 12:23:33 PM 38.7606 -99.1636 60° Northeast 488 562 39,000  Level Kansas City Center
Fri 12:24:36 PM 38.8283 -99.0119 60° Northeast 488 562 39,000  Level Kansas City Center
Fri 12:25:37 PM 38.8947 -98.8608 61° Northeast 486 559 39,000  Level Kansas City Center
Fri 12:26:38 PM 38.9611 -98.7092 61° Northeast 485 558 39,000  Level Kansas City Center
Fri 12:27:42 PM 39.0264 -98.5581 61° Northeast 484 557 39,000  Level Kansas City Center
Fri 12:28:42 PM 39.0936 -98.4044 61° Northeast 489 563 39,000  Level Kansas City Center
Fri 12:29:46 PM 39.1606 -98.2511 61° Northeast 489 563 39,000  Level Kansas City Center
Fri 12:30:46 PM 39.2344 -98.0800 61° Northeast 489 563 39,000  Level Kansas City Center
Fri 12:31:50 PM 39.3081 -97.9064 61° Northeast 493 567 39,000  Level Kansas City Center
Fri 12:32:51 PM 39.3786 -97.7411 61° Northeast 502 578 39,000  Level Kansas City Center
Fri 12:33:54 PM 39.4447 -97.5842 61° Northeast 499 574 39,000  Level Kansas City Center
Fri 12:34:54 PM 39.5100 -97.4314 61° Northeast 490 564 39,000  Level Kansas City Center
Fri 12:35:58 PM 39.5764 -97.2722 62° Northeast 497 572 39,000  Level Kansas City Center
Fri 12:36:59 PM 39.6389 -97.1236 61° Northeast 498 573 39,000  Level Kansas City Center
Fri 12:38:01 PM 39.7192 -96.9306 62° Northeast 503 579 39,000  Level Kansas City Center
Fri 12:39:04 PM 39.7875 -96.7619 62° Northeast 503 579 39,000  Level Kansas City Center
Fri 12:40:05 PM 39.8522 -96.6025 62° Northeast 499 574 39,000  Level Kansas City Center
Fri 12:41:09 PM 39.9175 -96.4442 62° Northeast 496 571 39,000  Level Kansas City Center
Fri 12:41:24 PM 39.9344 -96.3994 64° Northeast 499 574 39,000  Level Minneapolis Center
Fri 12:42:26 PM 39.9994 -96.2453 61° Northeast 495 570 39,000  Level Minneapolis Center
Fri 12:43:28 PM 40.0644 -96.0853 62° Northeast 494 568 39,000  Level Minneapolis Center
Fri 12:44:42 PM 40.1417 -95.8908 62° Northeast 499 574 39,000  Level Minneapolis Center
Fri 12:45:44 PM 40.2192 -95.6944 63° Northeast 504 580 39,000  Level Minneapolis Center
Fri 12:46:46 PM 40.2833 -95.5317 63° Northeast 505 581 39,000  Level Minneapolis Center
Fri 12:48:22 PM 40.3847 -95.2714 63° Northeast 496 571 39,000  Level Kansas City Center
Fri 12:48:49 PM 40.4114 -95.2058 62° Northeast 505 581 39,000  Level Minneapolis Center
Fri 12:49:51 PM 40.4736 -95.0453 63° Northeast 502 578 39,000  Level Minneapolis Center
Fri 12:50:53 PM 40.5486 -94.8531 63° Northeast 499 574 39,000  Level Minneapolis Center
Fri 12:51:55 PM 40.6103 -94.6928 63° Northeast 497 572 39,000  Level Minneapolis Center
Fri 12:52:57 PM 40.6711 -94.5344 63° Northeast 495 570 39,000  Level Minneapolis Center
Fri 12:53:58 PM 40.7319 -94.3711 64° Northeast 496 571 39,000  Level Minneapolis Center
Fri 12:55:00 PM 40.7933 -94.2108 63° Northeast 494 568 39,000  Level Minneapolis Center
Fri 12:56:02 PM 40.8531 -94.0492 64° Northeast 490 564 39,000  Level Minneapolis Center
Fri 12:57:04 PM 40.9133 -93.8900 63° Northeast 491 565 39,000  Level Minneapolis Center
Fri 12:58:06 PM 40.9836 -93.6992 64° Northeast 487 560 39,000  Level Minneapolis Center
Fri 12:59:07 PM 41.0442 -93.5369 64° Northeast 489 563 39,000  Level Minneapolis Center
Fri 01:00:09 PM 41.1047 -93.3761 63° Northeast 490 564 39,000  Level Minneapolis Center
Fri 01:01:11 PM 41.1828 -93.2267 55° Northeast 494 568 39,000  Level Minneapolis Center
Fri 01:02:13 PM 41.2575 -93.0756 57° Northeast 491 565 39,000  Level Minneapolis Center
Fri 01:03:15 PM 41.3322 -92.9272 56° Northeast 486 559 39,000  Level Minneapolis Center
Fri 01:04:17 PM 41.4211 -92.7458 57° Northeast 487 560 39,000  Level Minneapolis Center
Fri 01:05:18 PM 41.4956 -92.5947 57° Northeast 489 563 39,000  Level Minneapolis Center
Fri 01:05:41 PM 41.5156 -92.5517 58° Northeast 490 564 39,000  Level Chicago Center
Fri 01:06:43 PM 41.5900 -92.4031 56° Northeast 488 562 39,000  Level Chicago Center
Fri 01:07:45 PM 41.6778 -92.2231 57° Northeast 487 560 39,000  Level Chicago Center
Fri 01:08:47 PM 41.7503 -92.0717 57° Northeast 487 560 39,000  Level Chicago Center
Fri 01:09:49 PM 41.8228 -91.9200 57° Northeast 487 560 39,000  Level Chicago Center
Fri 01:10:51 PM 41.8922 -91.7661 59° Northeast 488 562 39,000  Level Chicago Center
Fri 01:11:53 PM 41.9369 -91.5978 70° East 483 556 39,000 -49 Level Chicago Center
Fri 01:12:54 PM 41.9903 -91.3950 70° East 485 558 38,900 -537 Descending Chicago Center
Fri 01:13:56 PM 42.0339 -91.2258 71° East 486 559 37,900 -968 Descending Chicago Center
Fri 01:14:58 PM 42.0783 -91.0536 71° East 492 566 36,900 -919 Descending Chicago Center
Fri 01:16:00 PM 42.1208 -90.8847 71° East 485 558 36,000 -919 Descending Chicago Center
Fri 01:17:02 PM 42.1633 -90.7136 71° East 487 560 35,000 -1,016 Descending Chicago Center
Fri 01:18:04 PM 42.2167 -90.5072 71° East 490 564 33,900 -1,452 Descending Chicago Center
Fri 01:19:06 PM 42.2614 -90.3303 71° East 501 577 32,000 -2,032 Descending Chicago Center
Fri 01:20:08 PM 42.3042 -90.1519 72° East 503 579 29,700 -2,129 Descending Chicago Center
Fri 01:21:10 PM 42.3469 -89.9742 72° East 503 579 27,600 -1,306 Descending Chicago Center
Fri 01:22:12 PM 42.3972 -89.7764 71° East 492 566 27,000 -774 Descending Chicago Center
Fri 01:23:14 PM 42.4381 -89.6067 72° East 478 550 26,000 -968 Descending Chicago Center
Fri 01:24:16 PM 42.4781 -89.4378 72° East 474 545 25,000 -968 Descending Chicago Center
Fri 01:25:18 PM 42.5183 -89.2697 72° East 469 540 24,000 -1,694 Descending Chicago Center
Fri 01:26:20 PM 42.5628 -89.0789 72° East 457 526 21,500 -2,274 Descending Chicago Center
Fri 01:27:22 PM 42.5917 -88.9208 76° East 435 501 19,300 -2,226 Descending Chicago Center
Fri 01:28:24 PM 42.6194 -88.7692 76° East 420 483 16,900 -2,226 Descending Chicago Center
Fri 01:29:26 PM 42.6469 -88.6239 76° East 403 464 14,700 -2,081 Descending Chicago Center
Fri 01:30:28 PM 42.6719 -88.4831 76° East 387 445 12,600 -2,177 Descending Chicago Center
Fri 01:31:30 PM 42.6997 -88.3278 76° East 369 425 10,200 -1,258 Descending Chicago Center
Fri 01:32:32 PM 42.7383 -88.2100 66° East 343 395 10,000 -339 Descending Chicago Center
Fri 01:33:34 PM 42.7917 -88.1106 54° Northeast 328 377 9,500 -774 Descending Chicago Center
Fri 01:34:36 PM 42.8217 -88.0022 69° East 310 357 8,400 -1,210 Descending Chicago Center
Fri 01:35:38 PM 42.8544 -87.8822 70° East 292 336 7,000 -968 Descending Chicago Center
Fri 01:36:40 PM 42.8800 -87.7906 69° East 263 303 6,400 -1,113 Descending Chicago Center
Fri 01:37:42 PM 42.9028 -87.7025 71° East 248 285 4,700 -1,694 Descending Chicago Center
Fri 01:38:44 PM 42.9458 -87.6686 30° Northeast 235 270 2,900 -1,065 Descending Chicago Center
Fri 01:39:46 PM 42.9850 -87.7053 326° Northwest 198 228 2,500 -194 Descending Chicago Center
Fri 01:40:48 PM 42.9781 -87.7553 259° West 152 175 2,500 -290 Level Chicago Center
Fri 01:41:50 PM 42.9658 -87.8053 252° West 128 147 1,900 -435 Descending Chicago Center
Fri 01:42:52 PM 42.9575 -87.8417 253° West 124 143 1,600 -290 Descending Chicago Center
Fri 01:45:00 PM 42.9333 -87.8833 284° West  Level FlightAware Approximate

Login

Don't have an account? Register now (free) for customized features, flight alerts, and more!